15分钟前
罗盘
风向 的 风向 290° Cannon Air Force Base 4/22
风: 6 千吨, 2 beaufort
0 500 1.500 3.000 5.000 8.000 10.000
没有云
METAR KCVS 301058Z AUTO 29006KT 10SM CLR 05/M06 A3004 RMK AO2 SLP142 T00481064 $

METAR定义 | 嵌入

24小时趋势

航班类别VFRLIFR
温度23 °C1 °C
风速11 千吨0 千吨
能见度16 公里0 米

更多历史数据

下载我们的安卓应用程序

从你的主屏幕上轻松地访问你的航空天气。
只需一次付费,您就可以获得无广告的体验。

您会帮助我们保持Metar-Taf.com正常运行吗?
您的贡献有助于网站的进一步开发并支付费用。

没有更多广告

您是捐款5美元还是更多?然后,我们将永远不会再向您展示广告,这是我们永恒的感谢!
捐赠前先登录

METAR Cannon Air Force Base

Cannon Air Force Base是Clovis,美国中的大型机场。 机场有{a,plural,=1{一条跑道} other{#跑道}}: 4/22 和 13/31

该报告是针对2021年11月30日 03:58, 当地时间上的Cannon Air Force Base所做的。

机场观察

风来自西北西 (290°)方向,速度为6 千吨。

可见度为16 公里。

有没有云。 没有观察到天花板。

温度为5 °C,阵风为1 °C。 露点为-6 °C,相对湿度为45%。 海平面上的气压为1017 压力 (QNH)。

评论

  • 自动气象站,可确定降水类型 (AO2)
  • 海平面压力为1014,2 压力 (SLP142)
  • 温度为4,8 °C,露点为-6,4 °C (T00481064)
  • 该气象站需要维护 ($)

白天

今天,太阳从06:40升起,在16:43降落。 这适用于Cannon Air Force Base,世界夏令时可能有所不同。 当地时间与世界标准时间之间的时差为-7 小时。 当前,没有夏令时有效。

公司介绍

我们没有关于这个机场的公司信息。

体会

到Vliegles.nl去找飞行课程,跳伞和其他飞行体验。 浏览页面,了解Cannon Air Force Base附近所有可用的活动。 你也可以使用搜索功能来寻找你所在地附近的特定飞行课程、跳伞或其他飞行体验。

您是否要在网站上Cannon Air Force Base飞行的天气? 阅读更多   自由!